createdAt,value
2023-04-12T00:00:50.781Z,0.90
2023-04-12T00:03:20.544Z,1.00
2023-04-12T00:05:48.396Z,0.82
2023-04-12T00:08:16.744Z,1.20
2023-04-12T00:10:43.618Z,1.98
2023-04-12T00:13:10.292Z,1.90
2023-04-12T00:15:37.137Z,1.35
2023-04-12T00:18:04.088Z,1.30
2023-04-12T00:20:30.788Z,0.60
2023-04-12T00:22:57.805Z,1.00
2023-04-12T00:25:24.722Z,0.65
2023-04-12T00:27:51.452Z,0.80
2023-04-12T00:30:18.428Z,0.80
2023-04-12T00:32:46.804Z,0.98
2023-04-12T00:35:14.058Z,0.80
2023-04-12T00:37:41.247Z,1.20
2023-04-12T00:40:10.346Z,0.80
2023-04-12T00:42:39.040Z,0.90
2023-04-12T00:45:07.469Z,0.73
2023-04-12T00:47:38.750Z,0.60
2023-04-12T00:50:06.746Z,0.85
2023-04-12T00:52:38.597Z,1.00
2023-04-12T00:55:07.724Z,0.90
2023-04-12T00:57:40.443Z,0.80
2023-04-12T01:00:12.392Z,0.90
2023-04-12T01:02:48.163Z,0.65
2023-04-12T01:05:22.405Z,0.80
2023-04-12T01:08:19.537Z,0.90
2023-04-12T01:11:13.449Z,0.70
2023-04-12T01:13:46.751Z,0.90
2023-04-12T01:16:30.150Z,0.57
2023-04-12T01:19:11.114Z,0.70
2023-04-12T01:22:36.452Z,1.13
2023-04-12T01:28:48.672Z,0.77
2023-04-12T01:32:09.816Z,1.30
2023-04-12T01:37:52.578Z,0.70
2023-04-12T01:40:45.377Z,1.20
2023-04-12T01:43:19.737Z,1.00
2023-04-12T01:45:58.441Z,1.02
2023-04-12T01:48:31.015Z,1.15
2023-04-12T01:51:14.756Z,0.98
2023-04-12T01:57:15.425Z,1.10
2023-04-12T01:59:53.294Z,1.05
2023-04-12T02:05:31.601Z,1.08
2023-04-12T02:08:13.509Z,1.10
2023-04-12T02:14:19.504Z,1.20
2023-04-12T02:16:58.343Z,1.15
2023-04-12T02:19:57.630Z,2.20
2023-04-12T02:22:42.062Z,1.98
2023-04-12T02:25:31.953Z,1.13
2023-04-12T02:28:15.023Z,1.45
2023-04-12T02:33:53.451Z,1.15
2023-04-12T02:36:29.031Z,1.45
2023-04-12T02:41:56.980Z,1.50
2023-04-12T02:44:35.947Z,1.33
2023-04-12T02:47:23.123Z,1.20
2023-04-12T02:50:02.546Z,0.90
2023-04-12T02:52:57.838Z,1.40
2023-04-12T02:55:31.510Z,0.70
2023-04-12T02:58:06.705Z,1.20
2023-04-12T03:00:52.858Z,0.95
2023-04-12T03:03:22.773Z,1.10
2023-04-12T03:05:55.814Z,1.27
2023-04-12T03:08:53.460Z,1.15
2023-04-12T03:11:46.620Z,0.80
2023-04-12T03:14:13.319Z,1.10
2023-04-12T03:16:40.081Z,1.17
2023-04-12T03:19:06.838Z,0.90
2023-04-12T03:21:33.528Z,1.23
2023-04-12T03:24:00.227Z,0.98
2023-04-12T03:26:27.130Z,0.95
2023-04-12T03:28:59.408Z,1.10
2023-04-12T03:31:27.212Z,0.80
2023-04-12T03:33:54.308Z,1.17
2023-04-12T03:36:23.852Z,1.02
2023-04-12T03:38:50.910Z,1.08
2023-04-12T03:41:17.571Z,1.00
2023-04-12T03:43:44.349Z,0.60
2023-04-12T03:46:11.187Z,1.00
2023-04-12T03:48:37.949Z,0.88
2023-04-12T03:51:08.549Z,0.80
2023-04-12T03:53:35.407Z,0.80
2023-04-12T03:56:02.068Z,0.98
2023-04-12T03:58:28.763Z,0.95
2023-04-12T04:00:55.862Z,1.38
2023-04-12T04:03:26.997Z,0.77
2023-04-12T04:05:54.012Z,0.80
2023-04-12T04:08:20.932Z,0.60
2023-04-12T04:10:47.706Z,0.88
2023-04-12T04:13:14.360Z,1.13
2023-04-12T04:15:41.138Z,0.90
2023-04-12T04:18:07.872Z,0.70
2023-04-12T04:20:34.542Z,0.80
2023-04-12T04:23:01.234Z,0.77
2023-04-12T04:25:30.019Z,0.98
2023-04-12T04:27:58.226Z,0.80
2023-04-12T04:30:25.193Z,0.77
2023-04-12T04:32:51.983Z,1.20
2023-04-12T04:35:18.776Z,0.90
2023-04-12T04:37:45.528Z,0.88
2023-04-12T04:40:12.425Z,1.10
2023-04-12T04:42:39.857Z,1.00
2023-04-12T04:45:13.758Z,0.90
2023-04-12T04:47:40.755Z,0.95
2023-04-12T04:50:08.082Z,1.20
2023-04-12T04:52:34.848Z,1.10
2023-04-12T04:55:03.339Z,1.13
2023-04-12T04:57:31.623Z,0.85
2023-04-12T04:59:58.283Z,0.75
2023-04-12T05:02:26.088Z,1.38
2023-04-12T05:04:56.250Z,0.80
2023-04-12T05:07:23.659Z,0.80
2023-04-12T05:09:50.475Z,1.20
2023-04-12T05:12:17.118Z,1.05
2023-04-12T05:14:48.076Z,1.30
2023-04-12T05:17:18.558Z,1.17
2023-04-12T05:19:45.332Z,1.40
2023-04-12T05:22:13.020Z,1.20
2023-04-12T05:24:39.775Z,0.80
2023-04-12T05:27:06.569Z,1.10
2023-04-12T05:29:33.192Z,1.50
2023-04-12T05:31:59.936Z,0.95
2023-04-12T05:34:26.699Z,0.90
2023-04-12T05:36:53.394Z,1.45
2023-04-12T05:39:20.797Z,1.15
2023-04-12T05:41:47.629Z,1.17
2023-04-12T05:44:14.370Z,2.05
2023-04-12T05:46:41.220Z,1.70
2023-04-12T05:49:08.443Z,1.00
2023-04-12T05:51:41.245Z,1.00
2023-04-12T05:54:09.185Z,1.30
2023-04-12T05:56:36.103Z,1.00
2023-04-12T05:59:03.161Z,1.13
2023-04-12T06:01:34.227Z,1.02
2023-04-12T06:04:02.499Z,0.95
2023-04-12T06:06:30.413Z,1.00
2023-04-12T06:09:00.646Z,1.63
2023-04-12T06:11:27.614Z,1.02
2023-04-12T06:13:54.444Z,1.38
2023-04-12T06:16:21.269Z,1.25
2023-04-12T06:18:48.025Z,0.98
2023-04-12T06:21:14.777Z,1.27
2023-04-12T06:23:41.540Z,1.10
2023-04-12T06:26:08.356Z,1.10
2023-04-12T06:28:35.041Z,0.93
2023-04-12T06:31:01.870Z,0.90
2023-04-12T06:33:28.641Z,1.10
2023-04-12T06:35:55.306Z,0.85
2023-04-12T06:38:22.115Z,1.10
2023-04-12T06:40:48.857Z,0.80
2023-04-12T06:43:19.195Z,0.77
2023-04-12T06:48:13.698Z,0.70
2023-04-12T06:50:40.447Z,0.70
2023-04-12T06:53:07.144Z,1.17
2023-04-12T06:55:34.358Z,0.85
2023-04-12T06:58:01.081Z,1.00
2023-04-12T07:00:27.987Z,1.40
2023-04-12T07:02:55.163Z,0.93
2023-04-12T07:05:22.128Z,0.93
2023-04-12T07:07:48.760Z,0.90
2023-04-12T07:10:15.712Z,0.90
2023-04-12T07:12:42.378Z,1.17
2023-04-12T07:15:09.437Z,1.05
2023-04-12T07:17:36.629Z,0.98
2023-04-12T07:20:03.786Z,1.23
2023-04-12T07:22:30.644Z,1.00
2023-04-12T07:24:57.464Z,1.20
2023-04-12T07:27:24.341Z,0.90
2023-04-12T07:29:54.574Z,0.80
2023-04-12T07:32:21.525Z,1.35
2023-04-12T07:34:48.300Z,1.20
2023-04-12T07:37:15.063Z,1.08
2023-04-12T07:39:41.800Z,0.95
2023-04-12T07:42:08.666Z,1.17
2023-04-12T07:44:38.656Z,1.25
2023-04-12T07:49:32.637Z,0.70
2023-04-12T07:52:00.666Z,1.10
2023-04-12T07:54:28.281Z,1.13
2023-04-12T07:57:05.440Z,1.17
2023-04-12T07:59:32.210Z,0.98
2023-04-12T08:01:59.233Z,1.10
2023-04-12T08:04:28.432Z,1.02
2023-04-12T08:06:55.654Z,1.02
2023-04-12T08:09:23.031Z,1.25
2023-04-12T08:11:49.810Z,0.80
2023-04-12T08:14:16.490Z,0.90
2023-04-12T08:16:43.187Z,1.45
2023-04-12T08:19:10.110Z,1.15
2023-04-12T08:21:36.837Z,1.10
2023-04-12T08:24:03.639Z,1.00
2023-04-12T08:26:30.364Z,1.13
2023-04-12T08:28:58.436Z,1.38
2023-04-12T08:31:25.193Z,1.55
2023-04-12T08:33:52.042Z,1.17
2023-04-12T08:36:19.217Z,1.10
2023-04-12T08:38:46.743Z,1.77
2023-04-12T08:41:14.587Z,1.60
2023-04-12T08:43:46.116Z,1.80
2023-04-12T08:46:15.725Z,1.90
2023-04-12T08:48:48.757Z,1.48
2023-04-12T08:51:18.341Z,1.55
2023-04-12T08:53:45.296Z,2.03
2023-04-12T08:56:16.622Z,1.35
2023-04-12T08:58:48.924Z,1.60
2023-04-12T09:01:16.782Z,1.42
2023-04-12T09:03:45.433Z,1.40
2023-04-12T09:06:13.495Z,1.83
2023-04-12T09:08:56.947Z,1.38
2023-04-12T09:11:28.286Z,1.50
2023-04-12T09:13:56.846Z,1.73
2023-04-12T09:16:41.335Z,1.60
2023-04-12T09:19:09.043Z,1.80
2023-04-12T09:21:37.011Z,1.50
2023-04-12T09:24:10.363Z,1.42
2023-04-12T09:26:40.190Z,2.10
2023-04-12T09:29:27.062Z,1.60
2023-04-12T09:31:57.713Z,1.60
2023-04-12T09:34:25.966Z,1.60
2023-04-12T09:36:54.441Z,1.63
2023-04-12T09:39:30.436Z,1.38
2023-04-12T09:42:25.718Z,1.50
2023-04-12T09:44:58.560Z,1.65
2023-04-12T09:47:41.555Z,1.58
2023-04-12T09:50:09.720Z,1.70
2023-04-12T09:52:38.513Z,2.22
2023-04-12T09:55:11.854Z,1.85
2023-04-12T09:57:43.100Z,1.80
2023-04-12T10:00:22.682Z,1.95
2023-04-12T10:02:52.304Z,1.30
2023-04-12T10:05:21.640Z,1.45
2023-04-12T10:07:49.161Z,1.30
2023-04-12T10:10:18.238Z,1.60
2023-04-12T10:12:46.793Z,1.50
2023-04-12T10:15:17.540Z,3.03
2023-04-12T10:17:47.493Z,1.92
2023-04-12T10:20:15.969Z,1.40
2023-04-12T10:22:48.354Z,1.48
2023-04-12T10:25:17.305Z,1.50
2023-04-12T10:27:45.208Z,1.55
2023-04-12T10:30:32.256Z,1.85
2023-04-12T10:33:05.283Z,1.50
2023-04-12T10:36:03.862Z,1.58
2023-04-12T10:38:37.382Z,1.45
2023-04-12T10:41:19.136Z,1.70
2023-04-12T10:43:49.868Z,1.15
2023-04-12T10:46:37.520Z,1.45
2023-04-12T10:49:17.469Z,1.45
2023-04-12T10:52:13.525Z,1.20
2023-04-12T10:54:40.442Z,1.58
2023-04-12T10:57:08.159Z,1.25
2023-04-12T10:59:59.319Z,1.35
2023-04-12T11:02:26.498Z,1.20
2023-04-12T11:05:09.334Z,1.83
2023-04-12T11:07:44.674Z,1.95
2023-04-12T11:10:16.706Z,1.13
2023-04-12T11:12:50.799Z,1.17
2023-04-12T11:15:18.154Z,1.40
2023-04-12T11:17:54.491Z,1.35
2023-04-12T11:20:21.517Z,1.05
2023-04-12T11:22:50.149Z,1.13
2023-04-12T11:25:18.111Z,1.00
2023-04-12T11:27:52.075Z,1.10
2023-04-12T11:30:20.108Z,1.10
2023-04-12T11:32:47.659Z,1.00
2023-04-12T11:35:20.559Z,1.55
2023-04-12T11:37:47.714Z,1.00
2023-04-12T11:40:14.841Z,1.10
2023-04-12T11:42:41.936Z,0.73
2023-04-12T11:45:17.052Z,0.95
2023-04-12T11:47:45.701Z,1.23
2023-04-12T11:50:12.576Z,0.80
2023-04-12T11:52:41.122Z,0.68
2023-04-12T11:55:11.032Z,1.00
2023-04-12T11:57:39.038Z,0.82
2023-04-12T12:00:06.934Z,0.75
2023-04-12T12:02:41.259Z,0.65
2023-04-12T12:05:13.508Z,0.77
2023-04-12T12:07:40.560Z,0.80
2023-04-12T12:10:08.119Z,0.80
2023-04-12T12:12:35.230Z,0.73
2023-04-12T12:15:02.473Z,0.80
2023-04-12T12:17:29.347Z,0.80
2023-04-12T12:19:59.427Z,0.80
2023-04-12T12:22:26.351Z,1.00
2023-04-12T12:24:56.665Z,0.70
2023-04-12T12:29:55.181Z,0.50
2023-04-12T12:32:23.694Z,0.63
2023-04-12T12:34:56.921Z,0.55
2023-04-12T12:37:25.877Z,0.63
2023-04-12T12:40:16.682Z,0.70
2023-04-12T12:42:48.733Z,0.55
2023-04-12T12:45:16.793Z,0.90
2023-04-12T12:47:53.467Z,0.60
2023-04-12T12:50:24.970Z,0.50
2023-04-12T12:58:25.986Z,0.60
2023-04-12T13:00:59.020Z,0.95
2023-04-12T13:03:28.092Z,0.60
2023-04-12T13:05:59.977Z,0.50
2023-04-12T13:08:29.335Z,0.68
2023-04-12T13:11:03.990Z,0.53
2023-04-12T13:13:31.033Z,0.70
2023-04-12T13:16:14.914Z,0.63
2023-04-12T13:21:42.465Z,0.80
2023-04-12T13:24:11.953Z,0.77
2023-04-12T13:26:41.494Z,0.53
2023-04-12T13:29:08.485Z,0.50
2023-04-12T13:31:35.451Z,0.50
2023-04-12T13:34:02.191Z,0.70
2023-04-12T13:36:28.980Z,0.55
2023-04-12T13:38:55.795Z,0.50
2023-04-12T13:41:22.921Z,0.40
2023-04-12T13:43:49.762Z,0.30
2023-04-12T13:46:16.654Z,0.38
2023-04-12T13:48:44.455Z,0.38
2023-04-12T13:51:11.326Z,0.50
2023-04-12T13:53:38.310Z,0.68
2023-04-12T13:56:05.615Z,0.20
2023-04-12T13:58:32.530Z,0.40
2023-04-12T14:01:01.520Z,0.40
2023-04-12T14:03:28.429Z,0.30
2023-04-12T14:05:56.222Z,0.43
2023-04-12T14:08:24.491Z,0.50
2023-04-12T14:10:51.347Z,0.45
2023-04-12T14:13:21.308Z,0.40
2023-04-12T14:16:00.052Z,0.30
2023-04-12T14:18:33.588Z,0.30
2023-04-12T14:21:00.565Z,0.57
2023-04-12T14:23:34.894Z,0.70
2023-04-12T14:26:30.544Z,0.50
2023-04-12T14:31:41.158Z,0.50
2023-04-12T14:34:11.176Z,0.43
2023-04-12T14:36:40.697Z,0.50
2023-04-12T14:39:12.219Z,0.57
2023-04-12T14:41:43.250Z,0.43
2023-04-12T14:44:10.069Z,0.30
2023-04-12T14:46:38.950Z,0.30
2023-04-12T14:49:07.080Z,0.47
2023-04-12T14:51:44.493Z,0.50
2023-04-12T14:54:11.426Z,0.50
2023-04-12T14:56:45.736Z,0.50
2023-04-12T14:59:19.412Z,0.30
2023-04-12T15:01:46.268Z,0.40
2023-04-12T15:04:13.326Z,0.20
2023-04-12T15:06:42.667Z,0.68
2023-04-12T15:09:10.120Z,0.95
2023-04-12T15:11:38.151Z,0.40
2023-04-12T15:14:06.023Z,2.15
2023-04-12T15:16:35.037Z,0.50
2023-04-12T15:19:08.450Z,0.43
2023-04-12T15:21:38.133Z,0.60
2023-04-12T15:24:05.052Z,0.57
2023-04-12T15:26:31.812Z,0.43
2023-04-12T15:28:58.637Z,0.70
2023-04-12T15:31:25.938Z,0.50
2023-04-12T15:33:52.698Z,0.63
2023-04-12T15:36:20.358Z,0.50
2023-04-12T15:38:47.274Z,0.60
2023-04-12T15:41:14.025Z,0.50
2023-04-12T15:43:42.144Z,0.30
2023-04-12T15:46:08.902Z,0.30
2023-04-12T15:48:38.855Z,0.52
2023-04-12T15:51:06.402Z,0.47
2023-04-12T15:53:33.145Z,0.40
2023-04-12T15:56:00.661Z,0.50
2023-04-12T15:58:28.387Z,0.52
2023-04-12T16:00:55.292Z,0.55
2023-04-12T16:03:26.420Z,0.50
2023-04-12T16:05:54.327Z,0.90
2023-04-12T16:08:22.499Z,0.60
2023-04-12T16:10:50.845Z,0.63
2023-04-12T16:13:18.867Z,0.75
2023-04-12T16:15:46.573Z,2.05
2023-04-12T16:18:13.473Z,1.80
2023-04-12T16:20:43.023Z,1.08
2023-04-12T16:23:09.891Z,1.20
2023-04-12T16:25:36.713Z,1.15
2023-04-12T16:28:03.789Z,0.85
2023-04-12T16:30:32.324Z,1.00
2023-04-12T16:32:59.541Z,1.55
2023-04-12T16:35:26.536Z,1.10
2023-04-12T16:37:53.796Z,1.20
2023-04-12T16:40:21.391Z,1.05
2023-04-12T16:42:49.164Z,0.88
2023-04-12T16:45:16.268Z,1.88
2023-04-12T16:47:45.712Z,1.35
2023-04-12T16:50:13.817Z,0.70
2023-04-12T16:52:42.154Z,0.63
2023-04-12T16:55:13.413Z,0.68
2023-04-12T16:57:43.429Z,0.80
2023-04-12T17:00:22.514Z,1.02
2023-04-12T17:02:50.961Z,0.70
2023-04-12T17:05:19.857Z,0.50
2023-04-12T17:07:54.290Z,0.70
2023-04-12T17:10:22.988Z,2.90
2023-04-12T17:12:52.719Z,1.50
2023-04-12T17:15:21.128Z,0.70
2023-04-12T17:17:53.982Z,0.80
2023-04-12T17:20:22.435Z,0.60
2023-04-12T17:22:50.058Z,0.40
2023-04-12T17:25:18.880Z,0.55
2023-04-12T17:27:47.807Z,0.50
2023-04-12T17:30:17.761Z,0.50
2023-04-12T17:32:47.598Z,0.40
2023-04-12T17:35:14.657Z,0.47
2023-04-12T17:37:41.587Z,0.95
2023-04-12T17:40:10.627Z,0.57
2023-04-12T17:42:39.141Z,0.43
2023-04-12T17:45:06.557Z,0.60
2023-04-12T17:47:37.567Z,0.63
2023-04-12T17:50:05.021Z,2.10
2023-04-12T17:52:32.109Z,0.93
2023-04-12T17:54:58.811Z,0.80
2023-04-12T17:57:27.403Z,0.68
2023-04-12T17:59:54.154Z,1.17
2023-04-12T18:02:21.137Z,0.80
2023-04-12T18:04:48.494Z,0.95
2023-04-12T18:07:16.659Z,1.40
2023-04-12T18:09:44.734Z,2.05
2023-04-12T18:12:12.337Z,1.33
2023-04-12T18:14:41.080Z,1.35
2023-04-12T18:17:08.374Z,1.10
2023-04-12T18:19:36.384Z,1.38
2023-04-12T18:22:04.040Z,1.23
2023-04-12T18:24:30.968Z,1.17
2023-04-12T18:26:59.227Z,1.23
2023-04-12T18:29:26.489Z,1.77
2023-04-12T18:31:53.381Z,0.93
2023-04-12T18:34:20.154Z,1.38
2023-04-12T18:36:47.651Z,0.52
2023-04-12T18:39:14.474Z,0.68
2023-04-12T18:41:41.128Z,0.93
2023-04-12T18:44:09.261Z,0.90
2023-04-12T18:46:36.335Z,2.30
2023-04-12T18:49:04.560Z,3.05
2023-04-12T18:51:33.082Z,2.95
2023-04-12T18:54:00.977Z,2.10
2023-04-12T18:56:28.076Z,2.28
2023-04-12T18:58:56.327Z,3.60
2023-04-12T19:01:24.530Z,1.13
2023-04-12T19:03:51.815Z,0.40
2023-04-12T19:06:18.871Z,0.52
2023-04-12T19:08:47.067Z,0.55
2023-04-12T19:11:15.561Z,0.40
2023-04-12T19:13:42.295Z,0.60
2023-04-12T19:16:09.607Z,0.80
2023-04-12T19:18:37.822Z,0.50
2023-04-12T19:21:05.353Z,0.50
2023-04-12T19:23:32.325Z,0.70
2023-04-12T19:26:00.245Z,0.63
2023-04-12T19:28:27.629Z,0.60
2023-04-12T19:30:54.882Z,0.70
2023-04-12T19:33:21.854Z,0.70
2023-04-12T19:35:48.683Z,0.90
2023-04-12T19:38:15.827Z,0.70
2023-04-12T19:40:43.152Z,0.75
2023-04-12T19:43:09.964Z,0.50
2023-04-12T19:45:36.775Z,0.57
2023-04-12T19:48:03.831Z,0.60
2023-04-12T19:50:31.158Z,0.70
2023-04-12T19:52:57.939Z,0.40
2023-04-12T19:55:26.029Z,0.60
2023-04-12T19:57:53.157Z,0.60
2023-04-12T20:00:20.683Z,0.50
2023-04-12T20:02:48.839Z,0.73
2023-04-12T20:05:16.589Z,0.80
2023-04-12T20:07:47.038Z,0.70
2023-04-12T20:10:15.345Z,0.90
2023-04-12T20:12:42.252Z,1.35
2023-04-12T20:15:11.818Z,0.70
2023-04-12T20:17:43.908Z,1.00
2023-04-12T20:20:14.054Z,1.13
2023-04-12T20:22:42.520Z,1.35
2023-04-12T20:25:14.337Z,1.30
2023-04-12T20:27:41.125Z,1.10
2023-04-12T20:30:11.227Z,1.17
2023-04-12T20:32:38.174Z,1.05
2023-04-12T20:35:05.476Z,1.10
2023-04-12T20:37:32.830Z,0.93
2023-04-12T20:39:59.589Z,0.80
2023-04-12T20:42:26.620Z,0.80
2023-04-12T20:44:53.414Z,0.70
2023-04-12T20:47:21.171Z,1.10
2023-04-12T20:49:47.924Z,0.60
2023-04-12T20:52:19.299Z,0.50
2023-04-12T20:54:48.159Z,0.50
2023-04-12T20:57:18.537Z,0.50
2023-04-12T21:02:13.334Z,0.47
2023-04-12T21:04:42.005Z,0.50
2023-04-12T21:07:09.250Z,0.57
2023-04-12T21:09:36.836Z,0.40
2023-04-12T21:12:07.183Z,0.52
2023-04-12T21:17:06.798Z,0.30
2023-04-12T21:19:41.719Z,0.35
2023-04-12T21:22:08.806Z,0.43
2023-04-12T21:24:38.288Z,0.50
2023-04-12T21:27:07.504Z,0.90
2023-04-12T21:29:37.402Z,0.90
2023-04-12T21:32:05.720Z,0.50
2023-04-12T21:34:33.773Z,0.90
2023-04-12T21:37:01.838Z,0.40
2023-04-12T21:39:29.287Z,0.63
2023-04-12T21:41:58.096Z,0.30
2023-04-12T21:44:25.663Z,0.57
2023-04-12T21:46:52.605Z,0.47
2023-04-12T21:49:19.390Z,0.60
2023-04-12T21:51:49.256Z,0.50
2023-04-12T21:54:16.593Z,0.60
2023-04-12T21:56:43.460Z,0.60
2023-04-12T21:59:10.297Z,0.55
2023-04-12T22:01:37.418Z,0.55
2023-04-12T22:04:04.503Z,0.50
2023-04-12T22:06:31.392Z,0.50
2023-04-12T22:09:01.961Z,0.60
2023-04-12T22:11:30.525Z,0.60
2023-04-12T22:13:57.879Z,0.40
2023-04-12T22:16:24.773Z,0.50
2023-04-12T22:18:52.864Z,0.50
2023-04-12T22:21:19.769Z,0.30
2023-04-12T22:23:46.831Z,0.40
2023-04-12T22:26:13.704Z,0.50
2023-04-12T22:28:42.263Z,0.70
2023-04-12T22:31:14.590Z,0.55
2023-04-12T22:33:41.764Z,1.13
2023-04-12T22:36:09.534Z,0.50
2023-04-12T22:38:37.373Z,0.63
2023-04-12T22:41:04.319Z,0.63
2023-04-12T22:43:42.154Z,0.60
2023-04-12T22:46:16.049Z,0.80
2023-04-12T22:48:44.274Z,0.65
2023-04-12T22:51:11.097Z,0.70
2023-04-12T22:53:37.873Z,0.85
2023-04-12T22:56:04.831Z,0.60
2023-04-12T22:58:31.957Z,0.80
2023-04-12T23:00:58.910Z,0.75
2023-04-12T23:03:25.881Z,0.75
2023-04-12T23:05:52.689Z,0.50
2023-04-12T23:08:20.161Z,0.52
2023-04-12T23:10:46.890Z,0.75
2023-04-12T23:13:13.958Z,0.70
2023-04-12T23:15:44.911Z,0.60
2023-04-12T23:18:11.676Z,0.73
2023-04-12T23:20:38.691Z,0.70
2023-04-12T23:23:05.645Z,0.90
2023-04-12T23:25:40.807Z,0.73
2023-04-12T23:28:13.298Z,0.80
2023-04-12T23:30:43.929Z,0.70
2023-04-12T23:35:39.638Z,0.52
2023-04-12T23:38:06.843Z,0.82
2023-04-12T23:40:34.721Z,0.80
2023-04-12T23:43:02.162Z,0.80
2023-04-12T23:45:28.899Z,0.90
2023-04-12T23:47:56.038Z,0.70
2023-04-12T23:50:23.473Z,0.70
2023-04-12T23:52:50.116Z,0.50
2023-04-12T23:55:17.145Z,0.80
2023-04-12T23:57:43.833Z,0.70
